Time;durP1;ratioP1;P1;durP2;ratioP2;P2;SDS_P1;SDS_P2;PMS_P1;PMS_P2;Temp;Humidity;BMP_temperature;BMP_pressure;BME280_temperature;BME280_humidity;BME280_pressure;Samples;Min_cycle;Max_cycle;Signal;HPM_P1;HPM_P2
2021/04/05 00:01:04;;;;;;;13.50;9.75;;;4.60;80.70;;;;;;5033957;28;20063;-80
2021/04/05 00:03:30;;;;;;;17.73;10.30;;;4.60;80.80;;;;;;5033980;28;20108;-80
2021/04/05 00:05:56;;;;;;;17.85;10.07;;;4.60;80.80;;;;;;5046842;28;20033;-80
2021/04/05 00:08:21;;;;;;;16.50;10.65;;;4.60;80.60;;;;;;5034934;28;20084;-80
2021/04/05 00:10:54;;;;;;;18.70;11.63;;;4.60;80.70;;;;;;5031566;28;20026;-81
2021/04/05 00:13:27;;;;;;;17.33;10.73;;;4.70;80.70;;;;;;5032135;28;20030;-80
2021/04/05 00:15:53;;;;;;;18.45;11.65;;;4.60;80.90;;;;;;5033330;28;20026;-81
2021/04/05 00:18:22;;;;;;;21.15;12.55;;;4.70;81.00;;;;;;5033871;28;20099;-80
2021/04/05 00:21:13;;;;;;;20.25;11.77;;;4.60;81.10;;;;;;5032878;28;20435;-81
2021/04/05 00:23:39;;;;;;;18.33;11.65;;;4.60;81.30;;;;;;5029389;28;20033;-80
2021/04/05 00:26:05;;;;;;;21.80;13.07;;;4.60;81.50;;;;;;5031603;28;20029;-81
2021/04/05 00:28:31;;;;;;;18.48;12.15;;;4.60;81.70;;;;;;5032696;28;20030;-80
2021/04/05 00:30:59;;;;;;;21.40;13.10;;;4.60;81.70;;;;;;5032474;28;20061;-80
2021/04/05 00:33:24;;;;;;;21.40;12.68;;;4.70;81.90;;;;;;5033744;28;20028;-80
2021/04/05 00:35:50;;;;;;;21.88;12.77;;;4.70;82.00;;;;;;5031551;28;20392;-80
2021/04/05 00:38:16;;;;;;;20.45;13.02;;;4.70;82.10;;;;;;5032116;28;20073;-80
2021/04/05 00:40:48;;;;;;;21.63;13.27;;;4.70;82.30;;;;;;5033152;28;20026;-80
2021/04/05 00:43:16;;;;;;;22.45;13.68;;;4.70;82.20;;;;;;5031340;28;20083;-80
2021/04/05 00:45:43;;;;;;;22.17;13.30;;;4.80;82.30;;;;;;5032273;28;20026;-80
2021/04/05 00:48:09;;;;;;;22.00;14.70;;;4.80;82.50;;;;;;5032569;28;20029;-80
2021/04/05 00:50:54;;;;;;;23.50;14.40;;;4.80;82.50;;;;;;5032746;28;20028;-80
2021/04/05 00:53:23;;;;;;;24.15;13.90;;;4.80;82.50;;;;;;5027241;28;20422;-81
2021/04/05 00:55:49;;;;;;;20.60;12.63;;;4.90;82.40;;;;;;5030004;28;20108;-80
2021/04/05 00:58:16;;;;;;;22.15;12.90;;;5.00;82.30;;;;;;5032047;28;20053;-80
2021/04/05 01:00:44;;;;;;;19.63;11.90;;;5.10;82.50;;;;;;5042353;28;20029;-80
2021/04/05 01:03:17;;;;;;;19.25;11.07;;;5.10;82.10;;;;;;5026873;28;20048;-80
2021/04/05 01:05:44;;;;;;;18.58;11.82;;;5.10;82.10;;;;;;5036198;28;20034;-80
2021/04/05 01:08:16;;;;;;;15.98;10.68;;;5.10;82.10;;;;;;5031128;28;20035;-80
2021/04/05 01:10:42;;;;;;;16.70;10.68;;;5.10;82.20;;;;;;5031833;28;20648;-81
2021/04/05 01:13:07;;;;;;;16.55;11.18;;;5.10;82.30;;;;;;5032837;28;20029;-80
2021/04/05 01:15:33;;;;;;;20.92;12.13;;;5.10;82.40;;;;;;5031888;28;20489;-80
2021/04/05 01:17:59;;;;;;;18.77;11.73;;;5.10;82.30;;;;;;5033043;28;20037;-80
2021/04/05 01:20:28;;;;;;;16.20;10.35;;;5.10;82.30;;;;;;5032736;28;20033;-80
2021/04/05 01:22:54;;;;;;;18.70;11.15;;;5.10;82.20;;;;;;5031479;28;20033;-77
2021/04/05 01:25:21;;;;;;;21.13;12.73;;;5.10;82.00;;;;;;5031647;28;20037;-79
2021/04/05 01:27:48;;;;;;;21.00;12.10;;;5.10;82.00;;;;;;5032012;28;20025;-80
2021/04/05 01:30:27;;;;;;;21.98;12.52;;;5.10;81.80;;;;;;5032605;28;20029;-80
2021/04/05 01:33:02;;;;;;;24.42;13.23;;;5.10;81.50;;;;;;5029388;28;20034;-80
2021/04/05 01:35:28;;;;;;;22.55;13.35;;;5.10;81.40;;;;;;5028145;28;20700;-80
2021/04/05 01:37:54;;;;;;;21.27;12.77;;;5.10;81.40;;;;;;5024154;28;20456;-79
2021/04/05 01:40:20;;;;;;;26.77;15.25;;;5.10;81.20;;;;;;5032741;28;20384;-80
2021/04/05 01:42:46;;;;;;;25.13;15.02;;;5.10;81.10;;;;;;5048447;28;20022;-80
2021/04/05 01:45:17;;;;;;;27.13;15.40;;;5.10;80.90;;;;;;5030748;28;20025;-81
2021/04/05 01:47:43;;;;;;;24.65;14.77;;;5.10;80.90;;;;;;5025697;28;20055;-80
2021/04/05 01:50:09;;;;;;;24.10;14.13;;;5.00;80.90;;;;;;5032894;28;20053;-80
2021/04/05 01:52:39;;;;;;;26.75;15.65;;;5.00;80.90;;;;;;5048383;28;20029;-80
2021/04/05 01:55:06;;;;;;;29.45;15.27;;;5.00;81.00;;;;;;5047376;28;20029;-79
2021/04/05 01:57:32;;;;;;;26.70;15.48;;;4.90;81.00;;;;;;5047796;28;20045;-80
2021/04/05 01:59:57;;;;;;;26.83;16.65;;;4.90;81.30;;;;;;5031156;28;20057;-80
2021/04/05 02:02:23;;;;;;;27.27;15.68;;;4.80;81.40;;;;;;5048195;28;20117;-79
2021/04/05 02:04:49;;;;;;;25.02;16.25;;;4.80;81.50;;;;;;5055150;28;20028;-79
2021/04/05 02:07:15;;;;;;;30.63;17.10;;;4.80;81.50;;;;;;5051790;28;20029;-79
2021/04/05 02:09:40;;;;;;;49.63;26.52;;;4.80;81.50;;;;;;5032642;28;20022;-79
2021/04/05 02:12:07;;;;;;;63.17;31.45;;;4.80;80.90;;;;;;5032109;28;20030;-79
2021/04/05 02:14:33;;;;;;;51.58;29.52;;;4.60;80.30;;;;;;5046862;28;20037;-79
2021/04/05 02:16:59;;;;;;;49.67;28.70;;;4.50;80.30;;;;;;5012688;28;20025;-79
2021/04/05 02:19:25;;;;;;;55.53;29.00;;;4.30;80.30;;;;;;5032178;28;20036;-79
2021/04/05 02:21:52;;;;;;;46.22;25.23;;;4.10;80.40;;;;;;5032442;28;20028;-79
2021/04/05 02:24:18;;;;;;;51.90;26.08;;;4.00;80.60;;;;;;5031326;28;20028;-79
2021/04/05 02:26:46;;;;;;;51.67;25.80;;;4.00;80.60;;;;;;5032169;28;20430;-79
2021/04/05 02:29:17;;;;;;;42.38;23.70;;;3.80;80.50;;;;;;5047025;28;20028;-80
2021/04/05 02:31:43;;;;;;;40.55;23.50;;;3.70;80.70;;;;;;5031122;28;20026;-80
2021/04/05 02:34:12;;;;;;;44.25;25.35;;;3.60;80.90;;;;;;5032487;28;20080;-80
2021/04/05 02:36:39;;;;;;;39.15;24.67;;;3.50;81.20;;;;;;5047785;28;20145;-80
2021/04/05 02:39:07;;;;;;;46.97;26.13;;;3.40;81.50;;;;;;5047396;28;20112;-80
2021/04/05 02:41:35;;;;;;;44.22;26.83;;;3.30;81.80;;;;;;5047782;28;20500;-80
2021/04/05 02:44:02;;;;;;;44.10;28.23;;;3.20;81.90;;;;;;5031619;28;20136;-79
2021/04/05 02:46:33;;;;;;;46.50;28.38;;;3.10;82.30;;;;;;5032676;28;20132;-79
2021/04/05 02:49:01;;;;;;;50.58;31.75;;;3.00;82.50;;;;;;5047055;28;20483;-79
2021/04/05 02:51:27;;;;;;;57.78;30.58;;;3.00;82.70;;;;;;5042328;28;20036;-80
2021/04/05 02:54:01;;;;;;;59.03;31.40;;;2.90;82.90;;;;;;5049654;28;20076;-79
2021/04/05 02:56:28;;;;;;;49.88;29.88;;;2.90;83.50;;;;;;5032011;28;20036;-80
2021/04/05 02:58:55;;;;;;;59.08;29.95;;;2.80;83.40;;;;;;5033472;28;20053;-76
2021/04/05 03:01:23;;;;;;;46.85;26.55;;;2.90;83.70;;;;;;5035582;28;20029;-80
2021/04/05 03:03:49;;;;;;;66.72;32.25;;;2.90;83.80;;;;;;5044726;28;20128;-79
2021/04/05 03:06:20;;;;;;;54.35;29.35;;;2.90;83.80;;;;;;5036792;28;20029;-79
2021/04/05 03:08:46;;;;;;;55.50;28.75;;;2.90;83.90;;;;;;5050692;28;20025;-80
2021/04/05 03:11:14;;;;;;;55.15;30.33;;;2.90;83.80;;;;;;5049861;28;20029;-80
2021/04/05 03:13:40;;;;;;;69.85;35.78;;;3.00;83.60;;;;;;5035165;28;20032;-79
2021/04/05 03:16:11;;;;;;;63.75;33.65;;;3.00;83.20;;;;;;5036039;28;20368;-78
2021/04/05 03:18:39;;;;;;;83.97;38.85;;;2.90;82.90;;;;;;5047731;28;20029;-78
2021/04/05 03:21:09;;;;;;;79.97;38.40;;;2.90;83.10;;;;;;5033213;28;20498;-78
2021/04/05 03:23:35;;;;;;;88.63;43.40;;;2.80;83.40;;;;;;5034665;28;20047;-78
2021/04/05 03:26:02;;;;;;;89.60;42.88;;;2.80;83.30;;;;;;5025991;28;20029;-79
2021/04/05 03:28:27;;;;;;;78.22;39.08;;;2.70;83.40;;;;;;5032859;28;20060;-79
2021/04/05 03:31:15;;;;;;;78.45;37.30;;;2.70;84.10;;;;;;5046748;28;20457;-75
2021/04/05 03:33:47;;;;;;;85.28;40.65;;;2.80;84.80;;;;;;5027893;28;20040;-80
2021/04/05 03:36:27;;;;;;;77.60;39.65;;;2.90;84.90;;;;;;5038112;28;20026;-79
2021/04/05 03:38:56;;;;;;;72.97;37.67;;;3.10;84.90;;;;;;5033388;28;20163;-76
2021/04/05 03:41:32;;;;;;;75.20;40.28;;;3.10;84.90;;;;;;5044309;28;20064;-79
2021/04/05 03:44:05;;;;;;;71.35;37.33;;;3.20;85.40;;;;;;5048592;28;20393;-79
2021/04/05 03:46:38;;;;;;;62.38;34.45;;;3.30;85.50;;;;;;5034716;28;20028;-79
2021/04/05 03:49:32;;;;;;;67.60;36.40;;;3.40;85.90;;;;;;5033012;28;20036;-77
2021/04/05 03:52:27;;;;;;;72.68;38.58;;;3.60;86.30;;;;;;5046652;28;20044;-79
2021/04/05 03:54:59;;;;;;;71.47;35.87;;;3.80;86.60;;;;;;5031643;28;20064;-79
2021/04/05 03:57:36;;;;;;;65.05;35.95;;;4.20;87.30;;;;;;5049140;28;20372;-80
2021/04/05 04:00:08;;;;;;;81.55;38.60;;;4.60;87.50;;;;;;5039000;28;20049;-78
2021/04/05 04:02:42;;;;;;;47.25;28.38;;;5.00;87.30;;;;;;5037119;28;20026;-77
2021/04/05 04:05:17;;;;;;;46.10;27.15;;;5.50;85.80;;;;;;5035329;28;20026;-80
2021/04/05 04:07:49;;;;;;;45.75;28.02;;;5.80;84.00;;;;;;5033766;28;20379;-77
2021/04/05 04:10:20;;;;;;;47.92;28.67;;;6.00;82.40;;;;;;5033558;28;20124;-77
2021/04/05 04:12:48;;;;;;;48.72;29.30;;;6.20;82.20;;;;;;5032956;28;20108;-78
2021/04/05 04:15:16;;;;;;;41.83;27.83;;;6.50;81.70;;;;;;5032591;28;20033;-78
2021/04/05 04:17:46;;;;;;;44.22;26.75;;;6.90;80.30;;;;;;5049475;28;20087;-79
2021/04/05 04:20:17;;;;;;;35.33;23.02;;;7.20;79.00;;;;;;5032554;28;20053;-79
2021/04/05 04:22:47;;;;;;;36.80;22.13;;;7.60;78.30;;;;;;5050211;28;20357;-78
2021/04/05 04:25:23;;;;;;;37.47;22.20;;;8.00;77.40;;;;;;5029181;28;20062;-77
2021/04/05 04:27:49;;;;;;;;;;;8.20;76.00;;;;;;5023708;28;20033;-78
2021/04/05 04:30:16;;;;;;;;;;;8.50;77.40;;;;;;5030155;28;19909;-78
2021/04/05 04:32:42;;;;;;;32.70;20.15;;;8.80;77.60;;;;;;5038085;28;19963;-77
2021/04/05 04:35:12;;;;;;;28.85;19.20;;;9.20;76.10;;;;;;5030938;28;20030;-78
2021/04/05 04:37:40;;;;;;;34.03;21.58;;;9.50;73.80;;;;;;5028557;28;20033;-79
2021/04/05 04:40:07;;;;;;;30.27;20.88;;;9.80;71.70;;;;;;5030832;28;20032;-78
2021/04/05 04:42:33;;;;;;;38.78;25.48;;;9.90;70.50;;;;;;5030282;28;20036;-75
2021/04/05 04:44:59;;;;;;;34.33;24.38;;;9.60;68.40;;;;;;5031967;28;20105;-76
2021/04/05 04:47:25;;;;;;;40.78;26.33;;;9.20;67.80;;;;;;5023988;28;20040;-77
2021/04/05 04:49:51;;;;;;;47.38;27.95;;;8.70;67.80;;;;;;5029648;28;20084;-76
2021/04/05 04:52:20;;;;;;;50.58;28.65;;;8.20;68.30;;;;;;5030765;28;20037;-75
2021/04/05 04:54:46;;;;;;;54.22;31.08;;;7.80;69.50;;;;;;5030225;28;20124;-75
2021/04/05 04:57:11;;;;;;;50.97;31.75;;;7.80;71.30;;;;;;5020460;28;20122;-77
2021/04/05 04:59:37;;;;;;;61.67;35.08;;;8.40;73.70;;;;;;5028553;28;20483;-78
2021/04/05 05:02:04;;;;;;;56.58;33.10;;;9.30;73.90;;;;;;5027386;28;20034;-77
2021/04/05 05:04:31;;;;;;;58.72;31.95;;;10.10;71.90;;;;;;5029051;28;20374;-80
2021/04/05 05:07:00;;;;;;;49.67;31.00;;;10.70;69.90;;;;;;5043727;28;20034;-78
2021/04/05 05:09:26;;;;;;;53.45;29.88;;;11.00;67.10;;;;;;5030541;28;20025;-74
2021/04/05 05:11:53;;;;;;;50.17;32.63;;;11.00;64.90;;;;;;5041437;28;20026;-77
2021/04/05 05:14:20;;;;;;;66.13;32.15;;;10.70;63.60;;;;;;5027974;28;20036;-77
2021/04/05 05:16:46;;;;;;;53.65;30.38;;;10.40;63.60;;;;;;5028064;28;20115;-79
2021/04/05 05:19:14;;;;;;;44.33;28.00;;;10.30;64.30;;;;;;5024877;28;20022;-86
2021/04/05 05:21:49;;;;;;;49.85;29.45;;;10.20;64.30;;;;;;5027962;28;20026;-84
2021/04/05 05:24:24;;;;;;;47.60;30.70;;;10.10;64.40;;;;;;5039174;28;20030;-79
2021/04/05 05:26:51;;;;;;;52.63;32.13;;;10.40;65.20;;;;;;5027013;28;20033;-78
2021/04/05 05:29:18;;;;;;;47.90;30.58;;;10.50;64.80;;;;;;5026449;28;20017;-78
2021/04/05 05:31:45;;;;;;;50.47;32.35;;;10.90;64.90;;;;;;5015418;28;20345;-77
2021/04/05 05:34:13;;;;;;;54.28;33.80;;;11.20;63.80;;;;;;5027547;28;20032;-77
2021/04/05 05:36:41;;;;;;;52.78;33.88;;;11.30;62.70;;;;;;5028881;28;20067;-77
2021/04/05 05:39:07;;;;;;;60.88;33.67;;;11.90;63.10;;;;;;5030626;28;20025;-83
2021/04/05 05:41:52;;;;;;;54.10;32.50;;;12.60;62.70;;;;;;5022269;28;20026;-87
2021/04/05 05:44:42;;;;;;;54.10;32.80;;;13.40;61.20;;;;;;5029334;28;20200;-71
2021/04/05 05:47:28;;;;;;;62.42;35.00;;;14.10;59.70;;;;;;5033441;28;20418;-88
2021/04/05 05:50:18;;;;;;;54.90;33.75;;;14.80;57.50;;;;;;5032549;28;20472;-82
2021/04/05 05:53:17;;;;;;;57.75;36.13;;;15.10;55.90;;;;;;5024980;28;20053;-83
2021/04/05 05:56:06;;;;;;;60.45;36.67;;;15.40;55.20;;;;;;5044914;28;20030;-89
2021/04/05 05:58:56;;;;;;;59.78;35.80;;;15.90;54.40;;;;;;5045626;28;20046;-81
2021/04/05 06:01:38;;;;;;;53.78;34.33;;;16.10;53.40;;;;;;5030634;28;20034;-91
2021/04/05 06:04:39;;;;;;;50.00;34.17;;;16.50;53.00;;;;;;5032914;28;20120;-79
2021/04/05 06:07:33;;;;;;;50.17;31.67;;;17.00;51.80;;;;;;5059385;28;20036;-92
2021/04/05 06:10:28;;;;;;;49.13;33.63;;;17.50;50.60;;;;;;5024496;28;20117;-81
2021/04/05 06:13:22;;;;;;;67.03;33.55;;;17.90;49.50;;;;;;5032707;28;20041;-86
2021/04/05 06:16:04;;;;;;;20.35;13.80;;;17.90;48.40;;;;;;5039891;28;20029;-82
2021/04/05 06:18:42;;;;;;;14.00;9.55;;;17.90;47.20;;;;;;5027657;28;20041;-82
2021/04/05 06:21:37;;;;;;;21.85;12.20;;;17.40;46.10;;;;;;5023989;28;20470;-80
2021/04/05 06:24:08;;;;;;;10.50;7.10;;;16.80;46.70;;;;;;5043824;28;20383;-81
2021/04/05 06:26:53;;;;;;;10.40;6.13;;;16.40;46.80;;;;;;5014901;28;20535;-82
2021/04/05 06:29:47;;;;;;;8.75;5.95;;;16.20;47.10;;;;;;5032750;28;20049;-82
2021/04/05 06:32:15;;;;;;;6.63;5.22;;;16.20;47.10;;;;;;5028414;28;20072;-72
2021/04/05 06:35:14;;;;;;;9.90;6.28;;;16.30;47.10;;;;;;5027885;28;20491;-69
2021/04/05 06:37:46;;;;;;;7.88;6.45;;;16.60;46.80;;;;;;5039514;28;20558;-72
2021/04/05 06:40:22;;;;;;;7.90;5.20;;;16.80;47.10;;;;;;5018619;28;20072;-67
2021/04/05 06:43:08;;;;;;;7.00;4.70;;;17.20;46.10;;;;;;5023355;28;20067;-80
2021/04/05 06:45:51;;;;;;;7.63;4.72;;;17.60;45.50;;;;;;5048512;28;20036;-82
2021/04/05 06:48:45;;;;;;;6.38;4.18;;;17.80;44.40;;;;;;5047897;28;20030;-82
2021/04/05 06:51:17;;;;;;;7.35;5.22;;;18.00;44.10;;;;;;5031775;28;20061;-83
2021/04/05 06:54:06;;;;;;;7.97;5.45;;;18.40;43.90;;;;;;5040773;28;20487;-85
2021/04/05 06:56:38;;;;;;;10.10;6.93;;;18.80;43.00;;;;;;5034131;28;20034;-82
2021/04/05 06:59:10;;;;;;;12.13;6.82;;;18.80;42.50;;;;;;5021128;28;20065;-82
2021/04/05 07:01:41;;;;;;;18.02;9.18;;;19.10;42.10;;;;;;5049191;28;20064;-85
2021/04/05 07:04:37;;;;;;;12.25;7.57;;;19.40;41.90;;;;;;5035275;28;20021;-82
2021/04/05 07:07:18;;;;;;;9.53;6.07;;;19.10;41.30;;;;;;5024482;28;20025;-82
2021/04/05 07:09:49;;;;;;;14.23;8.98;;;18.50;41.00;;;;;;5034477;28;20268;-82
2021/04/05 07:12:49;;;;;;;20.27;12.55;;;18.60;42.50;;;;;;5064882;28;20112;-81
2021/04/05 07:15:32;;;;;;;18.40;11.93;;;19.00;42.40;;;;;;5035570;28;20391;-81
2021/04/05 07:18:35;;;;;;;16.70;10.85;;;19.20;41.90;;;;;;5035687;28;20065;-83
2021/04/05 07:21:19;;;;;;;13.80;9.52;;;19.30;41.90;;;;;;5035617;28;20372;-82
2021/04/05 07:23:57;;;;;;;19.02;11.27;;;19.10;41.30;;;;;;5035595;28;20188;-83
2021/04/05 07:27:02;;;;;;;15.90;12.07;;;18.80;41.00;;;;;;5035975;28;20043;-83
2021/04/05 07:29:43;;;;;;;13.52;9.88;;;18.40;41.70;;;;;;5033734;28;20037;-84
2021/04/05 07:32:26;;;;;;;12.98;9.18;;;18.40;42.70;;;;;;5050843;28;20026;-83
2021/04/05 07:35:13;;;;;;;12.93;9.55;;;19.00;42.30;;;;;;5035617;28;20025;-84
2021/04/05 07:37:45;;;;;;;17.30;11.65;;;19.70;41.20;;;;;;5027493;28;20040;-83
2021/04/05 07:40:36;;;;;;;14.85;9.23;;;20.20;40.50;;;;;;5050458;28;20036;-84
2021/04/05 07:43:11;;;;;;;15.13;9.15;;;20.80;39.70;;;;;;5035736;28;20029;-82
2021/04/05 07:45:55;;;;;;;10.38;8.05;;;21.30;39.00;;;;;;5032721;28;20137;-84
2021/04/05 07:48:23;;;;;;;16.08;9.88;;;21.90;37.90;;;;;;5035997;28;20032;-83
2021/04/05 07:51:07;;;;;;;18.20;10.52;;;22.30;36.80;;;;;;5029859;28;20401;-83
2021/04/05 07:53:46;;;;;;;14.70;9.15;;;22.50;36.40;;;;;;5035658;28;20038;-83
2021/04/05 07:56:24;;;;;;;11.82;8.10;;;22.90;36.10;;;;;;5033780;28;20502;-83
2021/04/05 07:59:08;;;;;;;10.18;7.55;;;23.30;35.80;;;;;;5035085;28;20094;-83
2021/04/05 08:01:47;;;;;;;12.30;7.45;;;23.70;35.00;;;;;;5034787;28;20106;-82
2021/04/05 08:04:27;;;;;;;9.85;6.30;;;23.70;34.00;;;;;;5034961;28;20546;-82
2021/04/05 08:07:02;;;;;;;9.13;6.55;;;23.80;33.20;;;;;;5020919;28;20036;-83
2021/04/05 08:09:42;;;;;;;10.43;6.13;;;23.90;33.10;;;;;;5033529;28;20033;-82
2021/04/05 08:12:50;;;;;;;9.15;5.10;;;24.00;32.70;;;;;;5035302;28;20417;-82
2021/04/05 08:15:18;;;;;;;7.88;5.30;;;24.00;32.40;;;;;;5028968;28;20087;-82
2021/04/05 08:18:17;;;;;;;6.38;4.88;;;24.00;32.10;;;;;;5058339;28;20033;-82
2021/04/05 08:20:52;;;;;;;6.88;4.95;;;23.90;31.80;;;;;;5050474;28;20121;-82
2021/04/05 08:23:23;;;;;;;6.20;4.22;;;23.90;31.60;;;;;;5033496;28;20030;-82
2021/04/05 08:26:00;;;;;;;7.80;5.32;;;24.00;31.30;;;;;;5049729;28;20057;-82
2021/04/05 08:29:20;;;;;;;12.38;8.48;;;24.10;31.10;;;;;;5033352;28;20037;-82
2021/04/05 08:32:07;;;;;;;10.38;6.22;;;24.00;31.60;;;;;;5032636;28;20044;-81
2021/04/05 08:35:10;;;;;;;13.05;7.30;;;23.90;31.50;;;;;;5050308;28;20037;-81
2021/04/05 08:38:00;;;;;;;9.68;6.15;;;24.00;31.60;;;;;;5022474;28;20026;-81
2021/04/05 08:40:59;;;;;;;6.63;5.10;;;24.00;31.20;;;;;;5033706;28;20021;-81
2021/04/05 08:43:48;;;;;;;11.77;7.22;;;24.10;31.10;;;;;;4993009;28;20491;-81
2021/04/05 08:46:25;;;;;;;11.63;6.45;;;23.70;30.80;;;;;;5032357;28;20382;-80
2021/04/05 08:48:58;;;;;;;10.13;8.02;;;23.40;30.80;;;;;;5034130;28;20057;-83
2021/04/05 08:51:31;;;;;;;7.95;5.97;;;23.00;30.70;;;;;;5032811;28;20018;-81
2021/04/05 08:53:59;;;;;;;8.75;4.90;;;22.80;31.10;;;;;;5021667;28;20028;-81
2021/04/05 08:56:43;;;;;;;10.98;7.88;;;22.70;31.00;;;;;;5032759;28;20068;-80
2021/04/05 08:59:18;;;;;;;12.47;7.60;;;22.60;30.90;;;;;;5019015;28;20507;-81
2021/04/05 09:01:47;;;;;;;8.15;5.82;;;22.40;31.40;;;;;;5020116;28;20071;-80
2021/04/05 09:04:19;;;;;;;11.00;7.93;;;22.60;31.70;;;;;;5032643;28;20519;-80
2021/04/05 09:07:11;;;;;;;11.10;7.07;;;22.90;31.70;;;;;;5032689;28;20032;-80
2021/04/05 09:09:39;;;;;;;7.95;5.18;;;23.20;31.30;;;;;;5033426;28;20021;-80
2021/04/05 09:12:06;;;;;;;12.38;6.45;;;23.10;30.70;;;;;;5049062;28;20136;-80
2021/04/05 09:15:10;;;;;;;10.98;7.10;;;23.30;30.50;;;;;;5019902;28;20105;-88
2021/04/05 09:17:58;;;;;;;10.20;6.93;;;23.20;30.50;;;;;;5002893;28;20066;-81
2021/04/05 09:20:40;;;;;;;10.85;7.05;;;22.80;31.00;;;;;;5020009;28;20025;-80
2021/04/05 09:23:06;;;;;;;11.48;8.40;;;22.70;31.30;;;;;;5052091;28;20029;-79
2021/04/05 09:25:49;;;;;;;10.30;7.97;;;22.80;31.20;;;;;;5033832;28;20018;-80
2021/04/05 09:28:36;;;;;;;11.10;8.57;;;22.80;31.10;;;;;;5031850;28;20084;-80
2021/04/05 09:31:38;;;;;;;12.77;9.60;;;22.30;30.80;;;;;;5033405;28;20037;-80
2021/04/05 09:34:38;;;;;;;14.10;9.93;;;21.30;31.20;;;;;;5020467;28;20025;-80
2021/04/05 09:37:31;;;;;;;17.10;12.13;;;20.30;32.00;;;;;;5048491;28;20044;-79
2021/04/05 09:40:16;;;;;;;18.17;9.73;;;19.40;33.00;;;;;;5033739;28;20030;-80
2021/04/05 09:43:24;;;;;;;22.05;11.30;;;18.40;33.80;;;;;;5020064;28;20080;-79
2021/04/05 09:46:31;;;;;;;14.65;10.90;;;17.50;34.80;;;;;;5021513;28;20038;-81
2021/04/05 09:49:26;;;;;;;21.17;9.98;;;16.80;35.60;;;;;;5022063;28;20403;-82
2021/04/05 09:52:15;;;;;;;17.23;10.10;;;16.10;36.40;;;;;;5021587;28;20087;-79
2021/04/05 09:54:52;;;;;;;20.55;12.63;;;15.60;37.50;;;;;;5032464;28;20045;-78
2021/04/05 09:57:41;;;;;;;16.67;9.73;;;15.00;38.20;;;;;;5048346;28;20047;-79
2021/04/05 10:00:14;;;;;;;19.33;12.98;;;14.60;39.10;;;;;;5019297;28;20049;-78
2021/04/05 10:03:04;;;;;;;20.85;17.80;;;14.40;39.80;;;;;;5033222;28;20064;-79
2021/04/05 10:05:34;;;;;;;34.30;23.58;;;14.20;40.30;;;;;;5048421;28;20045;-78
2021/04/05 10:08:01;;;;;;;28.05;18.80;;;14.10;40.70;;;;;;5048585;28;20029;-78
2021/04/05 10:10:29;;;;;;;26.88;19.80;;;14.10;41.10;;;;;;5052549;28;20040;-78
2021/04/05 10:12:58;;;;;;;27.02;17.70;;;14.10;41.20;;;;;;5052071;28;20025;-79
2021/04/05 10:15:28;;;;;;;21.52;14.88;;;14.00;41.40;;;;;;5036245;28;20045;-78
2021/04/05 10:18:00;;;;;;;22.08;14.45;;;13.90;41.60;;;;;;5035604;28;20553;-78
2021/04/05 10:20:30;;;;;;;22.27;15.10;;;13.90;41.90;;;;;;5036959;28;20018;-82
2021/04/05 10:23:04;;;;;;;23.25;13.13;;;13.70;42.50;;;;;;5052143;28;20456;-83
2021/04/05 10:25:31;;;;;;;19.48;11.18;;;13.50;42.90;;;;;;5036224;28;20415;-81
2021/04/05 10:28:00;;;;;;;18.95;11.48;;;13.30;43.00;;;;;;5027279;28;20029;-79
2021/04/05 10:30:33;;;;;;;16.02;11.23;;;13.20;43.20;;;;;;5040252;28;20024;-79
2021/04/05 10:33:03;;;;;;;13.07;8.57;;;13.00;43.30;;;;;;5051718;28;20049;-79
2021/04/05 10:35:31;;;;;;;14.07;8.45;;;12.80;42.90;;;;;;5052038;28;20022;-82
2021/04/05 10:37:57;;;;;;;16.02;9.52;;;12.70;42.90;;;;;;5035288;28;20025;-82
2021/04/05 10:40:23;;;;;;;20.08;13.20;;;12.70;43.50;;;;;;5051848;28;20080;-82
2021/04/05 10:42:53;;;;;;;20.20;13.35;;;12.60;43.70;;;;;;5051839;28;20468;-81
2021/04/05 10:45:28;;;;;;;20.58;10.57;;;12.60;43.70;;;;;;5036250;28;20025;-82
2021/04/05 10:48:12;;;;;;;23.33;12.55;;;12.60;43.30;;;;;;5035079;28;20100;-80
2021/04/05 10:50:45;;;;;;;40.25;13.07;;;12.60;43.20;;;;;;5051979;28;20026;-81
2021/04/05 10:53:17;;;;;;;28.30;17.85;;;12.50;43.30;;;;;;5021414;28;20036;-81
2021/04/05 10:55:51;;;;;;;31.40;22.42;;;12.50;43.40;;;;;;5036145;28;20476;-81
2021/04/05 10:58:22;;;;;;;26.95;17.67;;;12.50;43.20;;;;;;5034556;28;20103;-80
2021/04/05 11:00:53;;;;;;;26.27;12.75;;;12.40;43.20;;;;;;5051824;28;20431;-82
2021/04/05 11:03:23;;;;;;;31.23;14.07;;;12.30;43.50;;;;;;5034924;28;20021;-82
2021/04/05 11:05:56;;;;;;;16.98;11.45;;;12.20;43.70;;;;;;5024202;28;20081;-80
2021/04/05 11:08:24;;;;;;;15.50;9.13;;;12.10;43.80;;;;;;5046946;28;20025;-81
2021/04/05 11:10:58;;;;;;;22.17;9.95;;;12.20;43.80;;;;;;5027729;28;20029;-81
2021/04/05 11:13:25;;;;;;;21.30;10.63;;;12.30;43.80;;;;;;5051186;28;20188;-81
2021/04/05 11:15:51;;;;;;;25.25;14.35;;;12.40;43.70;;;;;;5035798;28;20061;-80
2021/04/05 11:18:20;;;;;;;26.70;12.32;;;12.60;43.60;;;;;;5051236;28;20040;-81
2021/04/05 11:20:50;;;;;;;27.55;16.77;;;12.80;43.20;;;;;;5050655;28;20116;-82
2021/04/05 11:23:17;;;;;;;18.73;11.32;;;12.90;42.70;;;;;;5050869;28;20033;-80
2021/04/05 11:25:50;;;;;;;24.90;11.75;;;13.00;42.50;;;;;;5035686;28;20455;-80
2021/04/05 11:28:25;;;;;;;26.73;13.25;;;13.30;42.40;;;;;;5035522;28;20456;-81
2021/04/05 11:30:57;;;;;;;33.35;19.10;;;13.70;42.70;;;;;;5035750;28;20021;-80
2021/04/05 11:33:29;;;;;;;30.25;16.48;;;14.10;42.40;;;;;;5050680;28;20088;-81
2021/04/05 11:35:56;;;;;;;35.90;16.45;;;14.40;41.80;;;;;;5038468;28;20105;-80
2021/04/05 11:38:23;;;;;;;29.60;16.27;;;14.60;41.30;;;;;;5035345;28;20428;-82
2021/04/05 11:40:56;;;;;;;48.47;37.17;;;14.80;41.00;;;;;;5050691;28;20021;-80
2021/04/05 11:43:29;;;;;;;45.15;27.48;;;14.80;40.70;;;;;;5035103;28;20126;-80
2021/04/05 11:46:10;;;;;;;41.38;28.90;;;15.00;40.20;;;;;;5050200;28;20033;-79
2021/04/05 11:48:36;;;;;;;24.48;14.38;;;14.90;39.80;;;;;;5050496;28;20468;-79
2021/04/05 11:51:02;;;;;;;28.98;14.77;;;14.80;39.80;;;;;;5049911;28;20376;-79
2021/04/05 11:53:54;;;;;;;25.30;13.80;;;14.90;40.20;;;;;;5033970;28;20388;-80
2021/04/05 11:56:24;;;;;;;25.92;16.95;;;15.40;40.00;;;;;;5034761;28;20022;-79
2021/04/05 11:59:25;;;;;;;21.83;14.32;;;15.50;39.30;;;;;;5033973;28;20054;-79
2021/04/05 12:01:54;;;;;;;24.70;13.88;;;15.30;38.70;;;;;;5035754;28;20030;-79
2021/04/05 12:04:25;;;;;;;22.45;12.02;;;15.00;38.90;;;;;;5050122;28;20021;-79
2021/04/05 12:07:12;;;;;;;26.85;14.30;;;14.90;39.00;;;;;;5021450;28;20033;-80
2021/04/05 12:09:44;;;;;;;19.80;13.02;;;14.80;39.30;;;;;;5050048;28;20402;-80
2021/04/05 12:12:36;;;;;;;20.77;12.38;;;14.80;39.20;;;;;;5050266;28;20460;-80
2021/04/05 12:15:04;;;;;;;30.80;16.02;;;14.90;39.20;;;;;;5049150;28;20465;-80
2021/04/05 12:17:32;;;;;;;41.92;17.92;;;14.60;38.70;;;;;;5034686;28;20362;-80
2021/04/05 12:20:01;;;;;;;22.55;13.18;;;14.40;38.80;;;;;;5034656;28;20033;-80
2021/04/05 12:22:32;;;;;;;19.38;11.98;;;14.30;39.00;;;;;;5034589;28;20036;-80
2021/04/05 12:25:01;;;;;;;30.13;15.93;;;14.20;39.10;;;;;;5049449;28;20032;-81
2021/04/05 12:27:34;;;;;;;16.90;9.57;;;14.00;39.20;;;;;;5032983;28;20472;-80
2021/04/05 12:30:03;;;;;;;20.25;10.23;;;13.80;39.10;;;;;;5034413;28;20026;-79
2021/04/05 12:32:29;;;;;;;47.97;20.15;;;13.50;39.20;;;;;;5049348;28;20463;-80
2021/04/05 12:35:02;;;;;;;49.30;21.48;;;13.20;39.60;;;;;;5034072;28;20122;-80
2021/04/05 12:37:29;;;;;;;33.47;14.45;;;13.10;40.00;;;;;;5020977;28;20430;-80
2021/04/05 12:40:00;;;;;;;37.80;13.77;;;12.90;40.40;;;;;;5037304;28;20116;-79
2021/04/05 12:42:37;;;;;;;58.20;17.50;;;12.70;40.30;;;;;;5043077;28;20112;-80
2021/04/05 12:45:08;;;;;;;35.85;15.25;;;12.40;40.90;;;;;;5049200;28;20026;-79
2021/04/05 12:47:40;;;;;;;29.13;13.45;;;12.30;41.30;;;;;;5049183;28;20124;-80
2021/04/05 12:50:13;;;;;;;39.90;13.98;;;12.30;41.80;;;;;;5034182;28;20025;-80
2021/04/05 12:52:41;;;;;;;23.17;10.82;;;12.30;42.30;;;;;;5032484;28;20030;-79
2021/04/05 12:55:15;;;;;;;16.23;9.82;;;12.30;42.60;;;;;;5033725;28;20026;-80
2021/04/05 12:57:41;;;;;;;20.45;10.45;;;12.40;42.60;;;;;;5032536;28;20365;-80
2021/04/05 13:00:19;;;;;;;21.45;14.50;;;12.40;42.50;;;;;;5033427;28;20050;-79
2021/04/05 13:03:19;;;;;;;25.42;14.77;;;12.40;42.60;;;;;;5048799;28;20045;-81
2021/04/05 13:05:53;;;;;;;19.55;11.75;;;12.30;42.70;;;;;;5048916;28;20018;-79
2021/04/05 13:08:27;;;;;;;16.40;8.43;;;12.30;42.70;;;;;;5033207;28;20075;-79
2021/04/05 13:11:02;;;;;;;22.02;7.45;;;12.30;42.60;;;;;;5033940;28;20540;-79
2021/04/05 13:13:33;;;;;;;14.95;7.78;;;12.40;42.30;;;;;;5032382;28;20120;-79